createdAt,value
2018-06-23T00:00:07.489Z,25.5
2018-06-23T00:02:05.132Z,25.5
2018-06-23T00:04:04.903Z,25.4
2018-06-23T00:06:05.573Z,25.4
2018-06-23T00:08:05.302Z,25.4
2018-06-23T00:10:07.547Z,25.4
2018-06-23T00:12:05.240Z,25.4
2018-06-23T00:14:07.421Z,25.4
2018-06-23T00:16:05.319Z,25.4
2018-06-23T00:18:04.779Z,25.4
2018-06-23T00:20:08.037Z,25.4
2018-06-23T00:22:05.281Z,25.4
2018-06-23T00:24:05.046Z,25.4
2018-06-23T00:26:04.687Z,25.4
2018-06-23T00:28:05.374Z,25.4
2018-06-23T00:30:05.107Z,25.4
2018-06-23T00:32:04.837Z,25.4
2018-06-23T00:34:05.566Z,25.4
2018-06-23T00:36:05.227Z,25.4
2018-06-23T00:38:05.009Z,25.4
2018-06-23T00:40:04.796Z,25.4
2018-06-23T00:42:08.032Z,25.3
2018-06-23T00:44:04.692Z,25.4
2018-06-23T00:46:05.366Z,25.4
2018-06-23T00:48:08.158Z,25.3
2018-06-23T00:50:04.817Z,25.3
2018-06-23T00:52:05.709Z,25.4
2018-06-23T00:54:07.945Z,25.3
2018-06-23T00:56:04.600Z,25.3
2018-06-23T00:58:05.288Z,25.3
2018-06-23T01:00:04.944Z,25.4
2018-06-23T01:02:07.205Z,25.3
2018-06-23T01:04:05.014Z,25.3
2018-06-23T01:06:04.748Z,25.3
2018-06-23T01:08:05.425Z,25.4
2018-06-23T01:10:05.069Z,25.4
2018-06-23T01:12:07.317Z,25.4
2018-06-23T01:14:07.512Z,25.4
2018-06-23T01:16:07.751Z,25.4
2018-06-23T01:18:04.694Z,25.4
2018-06-23T01:20:10.516Z,25.4
2018-06-23T01:22:07.783Z,25.4
2018-06-23T01:24:08.000Z,25.4
2018-06-23T01:26:07.188Z,25.3
2018-06-23T01:28:05.421Z,25.3
2018-06-23T01:30:04.617Z,25.4
2018-06-23T01:32:10.372Z,25.3
2018-06-23T01:34:07.601Z,25.3
2018-06-23T01:36:05.304Z,25.4
2018-06-23T01:38:05.057Z,25.3
2018-06-23T01:40:04.719Z,25.4
2018-06-23T01:42:05.453Z,25.3
2018-06-23T01:44:17.770Z,25.3
2018-06-23T01:46:08.045Z,25.3
2018-06-23T01:48:04.692Z,25.3
2018-06-23T01:50:05.362Z,25.3
2018-06-23T01:52:05.066Z,25.3
2018-06-23T01:54:05.396Z,25.3
2018-06-23T01:56:05.611Z,25.3
2018-06-23T01:58:05.303Z,25.3
2018-06-23T02:00:07.527Z,25.3
2018-06-23T02:02:07.281Z,25.3
2018-06-23T02:04:05.017Z,25.3
2018-06-23T02:06:05.243Z,25.3
2018-06-23T02:08:08.002Z,25.3
2018-06-23T02:10:04.709Z,25.3
2018-06-23T02:12:05.475Z,25.3
2018-06-23T02:14:05.107Z,25.3
2018-06-23T02:16:04.782Z,25.3
2018-06-23T02:18:04.642Z,25.3
2018-06-23T02:20:05.386Z,25.3
2018-06-23T02:22:05.090Z,25.3
2018-06-23T02:24:05.381Z,25.3
2018-06-23T02:26:05.260Z,25.3
2018-06-23T02:28:04.932Z,25.3
2018-06-23T02:30:07.657Z,25.3
2018-06-23T02:32:07.829Z,25.3
2018-06-23T02:34:05.523Z,25.3
2018-06-23T02:36:05.199Z,25.3
2018-06-23T02:38:10.143Z,25.3
2018-06-23T02:40:04.821Z,25.3
2018-06-23T02:42:05.526Z,25.2
2018-06-23T02:44:05.267Z,25.2
2018-06-23T02:46:05.019Z,25.2
2018-06-23T02:48:12.359Z,25.2
2018-06-23T02:50:05.037Z,25.2
2018-06-23T02:52:07.303Z,25.2
2018-06-23T02:54:05.590Z,25.2
2018-06-23T02:56:10.360Z,25.2
2018-06-23T02:58:10.079Z,25.2
2018-06-23T03:00:05.326Z,25.2
2018-06-23T03:02:05.071Z,25.2
2018-06-23T03:04:04.788Z,25.2
2018-06-23T03:06:05.482Z,25.2
2018-06-23T03:08:10.425Z,25.2
2018-06-23T03:10:05.078Z,25.2
2018-06-23T03:12:07.376Z,25.2
2018-06-23T03:14:05.127Z,25.2
2018-06-23T03:16:04.833Z,25.2
2018-06-23T03:18:09.907Z,25.1
2018-06-23T03:20:08.184Z,25.1
2018-06-23T03:22:04.875Z,25.2
2018-06-23T03:24:05.652Z,25.2
2018-06-23T03:26:05.386Z,25.1
2018-06-23T03:28:07.639Z,25.1
2018-06-23T03:30:07.482Z,25.2
2018-06-23T03:32:05.186Z,25.2
2018-06-23T03:34:04.941Z,25.1
2018-06-23T03:36:07.169Z,25.1
2018-06-23T03:38:04.880Z,25.1
2018-06-23T03:40:08.049Z,25.1
2018-06-23T03:42:04.768Z,25.1
2018-06-23T03:44:05.532Z,25.2
2018-06-23T03:46:07.750Z,25.1
2018-06-23T03:48:13.063Z,25.1
2018-06-23T03:50:07.230Z,25.1
2018-06-23T03:52:07.447Z,25.1
2018-06-23T03:54:04.750Z,25.1
2018-06-23T03:56:05.517Z,25.1
2018-06-23T03:58:05.169Z,25.1
2018-06-23T04:00:07.508Z,25.1
2018-06-23T04:02:05.222Z,25.1
2018-06-23T04:04:04.951Z,25.1
2018-06-23T04:06:07.416Z,25.1
2018-06-23T04:08:10.127Z,25.1
2018-06-23T04:10:04.821Z,25.1
2018-06-23T04:12:05.502Z,25.1
2018-06-23T04:14:04.698Z,25.2
2018-06-23T04:16:05.492Z,25.1
2018-06-23T04:18:05.391Z,25.1
2018-06-23T04:20:05.027Z,25.2
2018-06-23T04:22:04.703Z,25.1
2018-06-23T04:24:07.954Z,25.2
2018-06-23T04:26:09.673Z,25.1
2018-06-23T04:28:05.463Z,25.1
2018-06-23T04:30:04.688Z,25.2
2018-06-23T04:32:10.494Z,25.2
2018-06-23T04:34:10.269Z,25.2
2018-06-23T04:36:05.007Z,25.2
2018-06-23T04:38:12.817Z,25.2
2018-06-23T04:40:08.021Z,25.2
2018-06-23T04:42:05.327Z,25.1
2018-06-23T04:44:05.054Z,25.2
2018-06-23T04:46:05.247Z,25.2
2018-06-23T04:48:08.086Z,25.2
2018-06-23T04:50:05.140Z,25.1
2018-06-23T04:52:04.837Z,25.1
2018-06-23T04:54:05.555Z,25.2
2018-06-23T04:56:05.245Z,25.2
2018-06-23T04:58:09.986Z,25.3
2018-06-23T05:00:09.885Z,25.3
2018-06-23T05:02:07.741Z,25.3
2018-06-23T05:04:05.396Z,25.3
2018-06-23T05:06:07.613Z,25.3
2018-06-23T05:08:12.803Z,25.3
2018-06-23T05:10:05.537Z,25.3
2018-06-23T05:12:07.801Z,25.4
2018-06-23T05:14:05.463Z,25.4
2018-06-23T05:16:05.166Z,25.4
2018-06-23T05:18:05.057Z,25.4
2018-06-23T05:20:07.345Z,25.5
2018-06-23T05:22:05.275Z,25.5
2018-06-23T05:24:07.554Z,25.5
2018-06-23T05:26:05.262Z,25.5
2018-06-23T05:28:10.673Z,25.6
2018-06-23T05:30:05.352Z,25.5
2018-06-23T05:32:08.121Z,25.6
2018-06-23T05:34:05.392Z,25.6
2018-06-23T05:36:10.122Z,25.6
2018-06-23T05:38:04.805Z,25.6
2018-06-23T05:40:05.584Z,25.6
2018-06-23T05:42:05.261Z,25.6
2018-06-23T05:44:04.932Z,25.6
2018-06-23T05:46:05.605Z,25.5
2018-06-23T05:48:07.810Z,25.4
2018-06-23T05:50:08.039Z,25.5
2018-06-23T05:52:04.810Z,25.5
2018-06-23T05:54:05.569Z,25.4
2018-06-23T05:56:05.471Z,25.3
2018-06-23T05:58:05.213Z,25.4
2018-06-23T06:00:04.958Z,25.4
2018-06-23T06:02:04.720Z,25.3
2018-06-23T06:04:04.928Z,25.5
2018-06-23T06:06:05.144Z,25.5
2018-06-23T06:08:04.841Z,25.6
2018-06-23T06:10:08.135Z,25.6
2018-06-23T06:12:04.816Z,25.6
2018-06-23T06:14:05.479Z,25.6
2018-06-23T06:16:04.663Z,25.6
2018-06-23T06:18:05.541Z,25.6
2018-06-23T06:20:08.750Z,25.5
2018-06-23T06:22:05.424Z,25.5
2018-06-23T06:24:10.311Z,25.5
2018-06-23T06:26:07.526Z,25.5
2018-06-23T06:28:04.741Z,25.5
2018-06-23T06:30:05.033Z,25.5
2018-06-23T06:32:04.972Z,25.6
2018-06-23T06:34:05.209Z,25.6
2018-06-23T06:36:04.888Z,25.6
2018-06-23T06:38:05.550Z,25.6
2018-06-23T06:40:04.755Z,25.6
2018-06-23T06:42:05.057Z,25.6
2018-06-23T06:44:05.224Z,25.7
2018-06-23T06:46:04.862Z,25.7
2018-06-23T06:48:05.676Z,25.7
2018-06-23T06:50:05.385Z,25.7
2018-06-23T06:52:05.080Z,25.7
2018-06-23T06:54:04.794Z,25.7
2018-06-23T06:56:05.043Z,25.6
2018-06-23T06:58:07.243Z,25.6
2018-06-23T07:00:04.976Z,25.6
2018-06-23T07:02:07.246Z,25.6
2018-06-23T07:04:04.956Z,25.6
2018-06-23T07:06:04.647Z,25.6
2018-06-23T07:08:05.334Z,25.6
2018-06-23T07:10:07.681Z,25.6
2018-06-23T07:12:10.623Z,25.6
2018-06-23T07:14:05.221Z,25.5
2018-06-23T07:16:07.934Z,25.5
2018-06-23T07:18:04.860Z,25.5
2018-06-23T07:20:05.554Z,25.5
2018-06-23T07:22:45.995Z,25.5
2018-06-23T07:25:19.708Z,25.5
2018-06-23T07:26:04.869Z,25.5
2018-06-23T07:28:08.105Z,25.4
2018-06-23T07:30:04.766Z,25.4
2018-06-23T07:32:05.433Z,25.4
2018-06-23T07:34:05.374Z,25.4
2018-06-23T07:36:10.695Z,25.4
2018-06-23T07:38:07.907Z,25.4
2018-06-23T07:40:05.836Z,25.4
2018-06-23T07:42:09.842Z,25.4
2018-06-23T07:44:10.340Z,25.4
2018-06-23T07:46:15.473Z,25.4
2018-06-23T07:48:05.200Z,25.4
2018-06-23T07:50:08.030Z,25.4
2018-06-23T07:52:04.852Z,25.4
2018-06-23T07:54:04.803Z,25.3
2018-06-23T07:56:08.109Z,25.3
2018-06-23T07:58:10.024Z,25.1
2018-06-23T08:00:04.735Z,25.2
2018-06-23T08:02:07.930Z,25.1
2018-06-23T08:04:07.240Z,25.1
2018-06-23T08:06:05.049Z,25.1
2018-06-23T08:08:07.244Z,24.9
2018-06-23T08:10:04.955Z,24.9
2018-06-23T08:12:04.711Z,24.9
2018-06-23T08:14:05.357Z,24.8
2018-06-23T08:16:05.089Z,24.7
2018-06-23T08:18:05.270Z,24.7
2018-06-23T08:20:05.558Z,24.7
2018-06-23T08:22:05.282Z,24.7
2018-06-23T08:24:05.210Z,24.6
2018-06-23T08:26:04.942Z,24.6
2018-06-23T08:28:04.636Z,24.5
2018-06-23T08:30:05.270Z,24.5
2018-06-23T08:32:04.934Z,24.4
2018-06-23T08:34:04.719Z,24.4
2018-06-23T08:36:05.403Z,24.3
2018-06-23T08:38:05.134Z,24.3
2018-06-23T08:40:04.859Z,24.3
2018-06-23T08:42:04.762Z,24.2
2018-06-23T08:44:05.478Z,24.2
2018-06-23T08:46:05.178Z,24.1
2018-06-23T08:48:09.943Z,24
2018-06-23T08:50:04.596Z,24.1
2018-06-23T08:52:04.779Z,24
2018-06-23T08:54:10.098Z,23.9
2018-06-23T08:56:04.815Z,23.9
2018-06-23T08:58:05.589Z,23.8
2018-06-23T09:00:05.320Z,23.8
2018-06-23T09:02:05.072Z,23.8
2018-06-23T09:04:04.739Z,23.8
2018-06-23T09:06:05.418Z,23.8
2018-06-23T09:08:12.700Z,23.7
2018-06-23T09:10:05.429Z,23.7
2018-06-23T09:12:12.831Z,23.7
2018-06-23T09:14:05.523Z,23.7
2018-06-23T09:16:05.306Z,23.7
2018-06-23T09:18:10.335Z,23.7
2018-06-23T09:20:10.788Z,23.7
2018-06-23T09:22:05.532Z,23.7
2018-06-23T09:24:05.375Z,23.7
2018-06-23T09:26:05.506Z,23.7
2018-06-23T09:28:05.234Z,23.7
2018-06-23T09:30:04.975Z,23.7
2018-06-23T09:32:04.667Z,23.7
2018-06-23T09:34:08.075Z,23.6
2018-06-23T09:36:04.971Z,23.6
2018-06-23T09:38:04.756Z,23.6
2018-06-23T09:40:05.487Z,23.6
2018-06-23T09:42:05.179Z,23.6
2018-06-23T09:44:04.848Z,23.6
2018-06-23T09:46:08.247Z,23.5
2018-06-23T09:48:07.198Z,23.5
2018-06-23T09:50:05.382Z,23.5
2018-06-23T09:52:15.148Z,23.5
2018-06-23T09:54:05.282Z,23.5
2018-06-23T09:56:04.968Z,23.5
2018-06-23T09:58:10.005Z,23.5
2018-06-23T10:00:07.783Z,23.5
2018-06-23T10:02:05.443Z,23.5
2018-06-23T10:04:05.195Z,23.5
2018-06-23T10:06:05.598Z,23.5
2018-06-23T10:08:05.163Z,23.5
2018-06-23T10:10:05.533Z,23.5
2018-06-23T10:12:04.634Z,23.5
2018-06-23T10:14:04.838Z,23.5
2018-06-23T10:16:04.628Z,23.4
2018-06-23T10:18:07.609Z,23.5
2018-06-23T10:20:05.580Z,23.4
2018-06-23T10:22:07.350Z,23.4
2018-06-23T10:24:05.265Z,23.4
2018-06-23T10:26:04.987Z,23.4
2018-06-23T10:28:04.655Z,23.4
2018-06-23T10:30:05.386Z,23.4
2018-06-23T10:32:07.718Z,23.4
2018-06-23T10:34:04.982Z,23.4
2018-06-23T10:36:05.237Z,23.4
2018-06-23T10:38:07.467Z,23.4
2018-06-23T10:40:05.264Z,23.4
2018-06-23T10:42:05.372Z,23.4
2018-06-23T10:44:05.022Z,23.4
2018-06-23T10:46:04.780Z,23.4
2018-06-23T10:48:05.506Z,23.4
2018-06-23T10:50:07.827Z,23.4
2018-06-23T10:52:09.746Z,23.4
2018-06-23T10:54:07.486Z,23.4
2018-06-23T10:56:05.248Z,23.4
2018-06-23T10:58:05.025Z,23.4
2018-06-23T11:00:04.828Z,23.4
2018-06-23T11:02:05.154Z,23.4
2018-06-23T11:04:07.485Z,23.4
2018-06-23T11:06:07.703Z,23.4
2018-06-23T11:08:05.405Z,23.4
2018-06-23T11:10:05.094Z,23.4
2018-06-23T11:12:04.790Z,23.4
2018-06-23T11:14:07.980Z,23.5
2018-06-23T11:16:04.804Z,23.5
2018-06-23T11:18:05.237Z,23.5
2018-06-23T11:20:04.883Z,23.5
2018-06-23T11:22:05.545Z,23.5
2018-06-23T11:24:05.393Z,23.6
2018-06-23T11:26:22.829Z,23.6
2018-06-23T11:28:05.568Z,23.6
2018-06-23T11:30:05.270Z,23.6
2018-06-23T11:32:10.038Z,23.6
2018-06-23T11:34:04.789Z,23.6
2018-06-23T11:36:08.010Z,23.6
2018-06-23T11:38:07.974Z,23.5
2018-06-23T11:40:07.183Z,23.6
2018-06-23T11:42:04.858Z,23.6
2018-06-23T11:44:08.090Z,23.6
2018-06-23T11:46:07.818Z,23.7
2018-06-23T11:48:05.508Z,23.7
2018-06-23T11:50:07.219Z,23.7
2018-06-23T11:52:08.003Z,23.7
2018-06-23T11:54:08.090Z,23.7
2018-06-23T11:56:07.321Z,23.7
2018-06-23T11:58:05.012Z,23.7
2018-06-23T12:00:05.277Z,23.7
2018-06-23T12:02:05.451Z,23.7
2018-06-23T12:04:05.191Z,23.7
2018-06-23T12:06:04.898Z,23.7
2018-06-23T12:08:07.248Z,23.8
2018-06-23T12:10:10.064Z,23.7
2018-06-23T12:12:05.352Z,23.8
2018-06-23T12:14:12.598Z,23.8
2018-06-23T12:16:07.845Z,23.8
2018-06-23T12:18:05.264Z,23.8
2018-06-23T12:20:07.503Z,23.8
2018-06-23T12:22:04.989Z,23.8
2018-06-23T12:24:05.335Z,23.8
2018-06-23T12:26:05.018Z,23.8
2018-06-23T12:28:05.257Z,23.9
2018-06-23T12:30:07.589Z,23.9
2018-06-23T12:32:04.804Z,23.9
2018-06-23T12:34:05.117Z,24
2018-06-23T12:36:04.863Z,23.9
2018-06-23T12:38:05.526Z,23.9
2018-06-23T12:40:05.225Z,24
2018-06-23T12:42:05.038Z,24
2018-06-23T12:44:04.704Z,24
2018-06-23T12:46:05.418Z,24
2018-06-23T12:48:05.277Z,24
2018-06-23T12:50:05.046Z,24
2018-06-23T12:52:04.851Z,24
2018-06-23T12:54:05.575Z,24
2018-06-23T12:56:05.292Z,24
2018-06-23T12:58:05.507Z,24
2018-06-23T13:00:05.167Z,24
2018-06-23T13:02:04.838Z,24
2018-06-23T13:04:05.513Z,24
2018-06-23T13:06:05.232Z,24.1
2018-06-23T13:08:04.912Z,24.1
2018-06-23T13:10:04.654Z,24.1
2018-06-23T13:12:05.386Z,24.1
2018-06-23T13:14:05.287Z,24.1
2018-06-23T13:16:18.573Z,24.1
2018-06-23T13:18:04.894Z,24.1
2018-06-23T13:20:05.642Z,24.1
2018-06-23T13:22:12.944Z,24.1
2018-06-23T13:24:04.772Z,24.1
2018-06-23T13:26:05.424Z,24.1
2018-06-23T13:28:05.073Z,24.1
2018-06-23T13:30:07.541Z,24.1
2018-06-23T13:32:05.219Z,24.1
2018-06-23T13:34:05.026Z,24.1
2018-06-23T13:36:07.240Z,24.2
2018-06-23T13:38:04.908Z,24.1
2018-06-23T13:40:04.611Z,24.1
2018-06-23T13:42:07.875Z,24.2
2018-06-23T13:44:05.556Z,24.2
2018-06-23T13:46:07.839Z,24.1
2018-06-23T13:48:05.615Z,24.2
2018-06-23T13:50:07.821Z,24.2
2018-06-23T13:52:05.541Z,24.2
2018-06-23T13:54:07.761Z,24.2
2018-06-23T13:56:05.181Z,24.2
2018-06-23T13:58:06.615Z,24.2
2018-06-23T14:00:05.280Z,24.2
2018-06-23T14:02:05.239Z,24.2
2018-06-23T14:04:04.951Z,24.2
2018-06-23T14:06:04.659Z,24.2
2018-06-23T14:08:10.387Z,24.2
2018-06-23T14:10:05.056Z,24.2
2018-06-23T14:12:04.752Z,24.2
2018-06-23T14:14:07.478Z,24.2
2018-06-23T14:16:08.179Z,24.2
2018-06-23T14:18:07.590Z,24.2
2018-06-23T14:20:04.821Z,24.2
2018-06-23T14:22:05.534Z,24.2
2018-06-23T14:24:05.197Z,24.2
2018-06-23T14:26:07.401Z,24.3
2018-06-23T14:28:05.131Z,24.2
2018-06-23T14:30:09.959Z,24.2
2018-06-23T14:32:04.793Z,24.2
2018-06-23T14:34:05.017Z,24.2
2018-06-23T14:36:05.004Z,24.2
2018-06-23T14:38:07.216Z,24.3
2018-06-23T14:40:04.990Z,24.2
2018-06-23T14:42:04.851Z,24.3
2018-06-23T14:44:08.077Z,24.2
2018-06-23T14:46:04.756Z,24.3
2018-06-23T14:48:10.002Z,24.3
2018-06-23T14:50:09.716Z,24.3
2018-06-23T14:52:05.387Z,24.3
2018-06-23T14:54:05.059Z,24.3
2018-06-23T14:56:04.729Z,24.3
2018-06-23T14:58:10.632Z,24.3
2018-06-23T15:00:07.436Z,24.3
2018-06-23T15:02:05.104Z,24.3
2018-06-23T15:04:07.306Z,24.3
2018-06-23T15:06:10.021Z,24.3
2018-06-23T15:08:04.733Z,24.3
2018-06-23T15:10:04.863Z,24.3
2018-06-23T15:12:05.586Z,24.4
2018-06-23T15:14:05.317Z,24.4
2018-06-23T15:16:05.059Z,24.4
2018-06-23T15:18:05.006Z,24.4
2018-06-23T15:20:05.303Z,24.4
2018-06-23T15:22:05.046Z,24.4
2018-06-23T15:24:07.429Z,24.4
2018-06-23T15:26:05.369Z,24.4
2018-06-23T15:28:05.097Z,24.4
2018-06-23T15:30:07.662Z,24.5
2018-06-23T15:32:05.362Z,24.4
2018-06-23T15:34:05.113Z,24.5
2018-06-23T15:36:04.902Z,24.5
2018-06-23T15:38:04.815Z,24.5
2018-06-23T15:40:04.821Z,24.5
2018-06-23T15:42:05.594Z,24.5
2018-06-23T15:44:07.794Z,24.5
2018-06-23T15:46:05.474Z,24.5
2018-06-23T15:48:05.208Z,24.5
2018-06-23T15:50:04.953Z,24.5
2018-06-23T15:52:04.696Z,24.5
2018-06-23T15:54:05.407Z,24.5
2018-06-23T15:56:05.109Z,24.5
2018-06-23T15:58:07.326Z,24.5
2018-06-23T16:00:05.042Z,24.5
2018-06-23T16:02:04.733Z,24.5
2018-06-23T16:04:05.417Z,24.5
2018-06-23T16:06:07.654Z,24.5
2018-06-23T16:08:05.320Z,24.5
2018-06-23T16:10:05.026Z,24.5
2018-06-23T16:12:07.978Z,24.6
2018-06-23T16:14:04.609Z,24.6
2018-06-23T16:16:05.311Z,24.6
2018-06-23T16:18:05.218Z,24.6
2018-06-23T16:20:04.924Z,24.6
2018-06-23T16:22:05.631Z,24.6
2018-06-23T16:24:05.311Z,24.6
2018-06-23T16:26:08.018Z,24.6
2018-06-23T16:28:04.735Z,24.6
2018-06-23T16:30:05.465Z,24.6
2018-06-23T16:32:04.710Z,24.6
2018-06-23T16:34:05.658Z,24.6
2018-06-23T16:36:05.359Z,24.6
2018-06-23T16:38:05.020Z,24.6
2018-06-23T16:40:04.713Z,24.6
2018-06-23T16:42:08.022Z,24.6
2018-06-23T16:44:04.725Z,24.7
2018-06-23T16:46:07.918Z,24.7
2018-06-23T16:48:05.609Z,24.7
2018-06-23T16:50:05.231Z,24.7
2018-06-23T16:52:04.922Z,24.7
2018-06-23T16:54:07.258Z,24.7
2018-06-23T16:56:05.517Z,24.7
2018-06-23T16:58:04.795Z,24.7
2018-06-23T17:00:08.034Z,24.7
2018-06-23T17:02:04.736Z,24.7
2018-06-23T17:04:05.468Z,24.7
2018-06-23T17:06:05.189Z,24.7
2018-06-23T17:08:10.027Z,24.7
2018-06-23T17:10:05.143Z,24.7
2018-06-23T17:12:05.417Z,24.7
2018-06-23T17:14:07.620Z,24.7
2018-06-23T17:16:07.884Z,24.7
2018-06-23T17:18:07.316Z,24.7
2018-06-23T17:20:05.022Z,24.7
2018-06-23T17:22:04.808Z,24.7
2018-06-23T17:24:05.487Z,24.7
2018-06-23T17:26:07.668Z,24.7
2018-06-23T17:28:05.555Z,24.7
2018-06-23T17:30:05.499Z,24.7
2018-06-23T17:32:05.354Z,24.7
2018-06-23T17:34:09.757Z,24.7
2018-06-23T17:36:07.759Z,24.7
2018-06-23T17:38:05.500Z,24.7
2018-06-23T17:40:05.402Z,24.7
2018-06-23T17:42:05.672Z,24.7
2018-06-23T17:44:07.880Z,24.7
2018-06-23T17:46:10.675Z,24.7
2018-06-23T17:48:05.430Z,24.7
2018-06-23T17:50:05.125Z,24.7
2018-06-23T17:52:04.954Z,24.7
2018-06-23T17:54:04.653Z,24.7
2018-06-23T17:56:07.852Z,24.7
2018-06-23T17:58:05.600Z,24.7
2018-06-23T18:00:09.968Z,24.7
2018-06-23T18:02:04.947Z,24.7
2018-06-23T18:04:05.897Z,24.7
2018-06-23T18:06:09.686Z,24.7
2018-06-23T18:08:05.013Z,24.7
2018-06-23T18:10:04.748Z,24.6
2018-06-23T18:12:10.611Z,24.7
2018-06-23T18:14:04.653Z,24.7
2018-06-23T18:16:05.367Z,24.7
2018-06-23T18:18:12.915Z,24.7
2018-06-23T18:20:07.143Z,24.7
2018-06-23T18:22:07.322Z,24.7
2018-06-23T18:24:05.132Z,24.7
2018-06-23T18:26:07.608Z,24.7
2018-06-23T18:28:12.905Z,24.7
2018-06-23T18:30:04.695Z,24.7
2018-06-23T18:32:05.404Z,24.7
2018-06-23T18:34:07.592Z,24.7
2018-06-23T18:36:05.276Z,24.7
2018-06-23T18:38:04.929Z,24.7
2018-06-23T18:40:14.793Z,24.7
2018-06-23T18:42:04.685Z,24.7
2018-06-23T18:44:07.941Z,24.7
2018-06-23T18:46:08.112Z,24.7
2018-06-23T18:48:04.833Z,24.7
2018-06-23T18:50:08.115Z,24.7
2018-06-23T18:52:09.911Z,24.7
2018-06-23T18:54:05.609Z,24.7
2018-06-23T18:56:07.902Z,24.7
2018-06-23T18:58:08.153Z,24.7
2018-06-23T19:00:04.804Z,24.7
2018-06-23T19:02:05.035Z,24.7
2018-06-23T19:04:04.683Z,24.7
2018-06-23T19:06:07.266Z,24.7
2018-06-23T19:08:04.981Z,24.7
2018-06-23T19:10:04.700Z,24.7
2018-06-23T19:12:08.017Z,24.7
2018-06-23T19:14:04.732Z,24.6
2018-06-23T19:16:08.095Z,24.6
2018-06-23T19:18:07.501Z,24.7
2018-06-23T19:20:05.181Z,24.7
2018-06-23T19:22:05.423Z,24.6
2018-06-23T19:24:05.141Z,24.6
2018-06-23T19:26:04.848Z,24.6
2018-06-23T19:28:05.530Z,24.6
2018-06-23T19:30:10.308Z,24.6
2018-06-23T19:32:04.689Z,24.6
2018-06-23T19:34:05.405Z,24.6
2018-06-23T19:36:05.083Z,24.6
2018-06-23T19:38:10.366Z,24.6
2018-06-23T19:40:05.069Z,24.6
2018-06-23T19:42:05.365Z,24.6
2018-06-23T19:44:08.325Z,24.6
2018-06-23T19:46:05.618Z,24.6
2018-06-23T19:48:07.843Z,24.6
2018-06-23T19:50:05.518Z,24.6
2018-06-23T19:52:05.205Z,24.6
2018-06-23T19:54:04.916Z,24.6
2018-06-23T19:56:05.186Z,24.6
2018-06-23T19:58:05.462Z,24.6
2018-06-23T20:00:05.224Z,24.6
2018-06-23T20:02:04.884Z,24.6
2018-06-23T20:04:08.109Z,24.6
2018-06-23T20:06:09.823Z,24.6
2018-06-23T20:08:05.051Z,24.6
2018-06-23T20:10:04.780Z,24.6
2018-06-23T20:12:04.989Z,24.6
2018-06-23T20:14:04.778Z,24.6
2018-06-23T20:16:08.032Z,24.6
2018-06-23T20:18:05.444Z,24.6
2018-06-23T20:20:10.160Z,24.6
2018-06-23T20:22:04.922Z,24.6
2018-06-23T20:24:05.924Z,24.6
2018-06-23T20:26:05.618Z,24.6
2018-06-23T20:28:05.299Z,24.6
2018-06-23T20:30:07.540Z,24.6
2018-06-23T20:32:07.831Z,24.6
2018-06-23T20:34:09.782Z,24.6
2018-06-23T20:36:05.773Z,24.6
2018-06-23T20:38:08.028Z,24.6
2018-06-23T20:40:05.534Z,24.6
2018-06-23T20:42:05.338Z,24.6
2018-06-23T20:44:05.048Z,24.6
2018-06-23T20:46:04.769Z,24.6
2018-06-23T20:48:08.006Z,24.5
2018-06-23T20:50:07.179Z,24.5
2018-06-23T20:52:04.873Z,24.5
2018-06-23T20:54:05.764Z,24.5
2018-06-23T20:56:05.472Z,24.6
2018-06-23T20:58:05.194Z,24.6
2018-06-23T21:00:05.412Z,24.6
2018-06-23T21:02:07.672Z,24.5
2018-06-23T21:04:05.325Z,24.5
2018-06-23T21:06:07.548Z,24.6
2018-06-23T21:08:07.853Z,24.6
2018-06-23T21:10:05.064Z,24.5
2018-06-23T21:12:05.296Z,24.5
2018-06-23T21:14:10.048Z,24.5
2018-06-23T21:16:07.255Z,24.6
2018-06-23T21:18:11.233Z,24.6
2018-06-23T21:20:04.949Z,24.6
2018-06-23T21:22:04.634Z,24.6
2018-06-23T21:24:05.404Z,24.6
2018-06-23T21:26:05.054Z,24.6
2018-06-23T21:28:04.841Z,24.6
2018-06-23T21:30:05.387Z,24.6
2018-06-23T21:32:05.095Z,24.6
2018-06-23T21:34:08.060Z,24.5
2018-06-23T21:36:04.768Z,24.6
2018-06-23T21:38:07.998Z,24.6
2018-06-23T21:40:04.750Z,24.6
2018-06-23T21:42:05.570Z,24.6
2018-06-23T21:44:05.268Z,24.6
2018-06-23T21:46:04.986Z,24.6
2018-06-23T21:48:04.664Z,24.6
2018-06-23T21:50:05.559Z,24.6
2018-06-23T21:52:05.209Z,24.6
2018-06-23T21:54:05.116Z,24.6
2018-06-23T21:56:04.848Z,24.6
2018-06-23T21:58:05.585Z,24.6
2018-06-23T22:00:05.288Z,24.5
2018-06-23T22:02:05.048Z,24.5
2018-06-23T22:04:07.273Z,24.5
2018-06-23T22:06:04.956Z,24.5
2018-06-23T22:08:04.628Z,24.6
2018-06-23T22:10:05.314Z,24.5
2018-06-23T22:12:05.003Z,24.5
2018-06-23T22:14:07.689Z,24.5
2018-06-23T22:16:07.937Z,24.5
2018-06-23T22:18:07.468Z,24.5
2018-06-23T22:20:15.296Z,24.5
2018-06-23T22:22:07.510Z,24.5
2018-06-23T22:24:04.691Z,24.5
2018-06-23T22:26:05.329Z,24.5
2018-06-23T22:28:04.972Z,24.5
2018-06-23T22:30:04.730Z,24.6
2018-06-23T22:32:05.430Z,24.5
2018-06-23T22:34:05.135Z,24.5
2018-06-23T22:36:04.956Z,24.5
2018-06-23T22:38:04.663Z,24.6
2018-06-23T22:40:12.508Z,24.5
2018-06-23T22:42:05.179Z,24.5
2018-06-23T22:44:04.826Z,24.5
2018-06-23T22:46:05.072Z,24.5
2018-06-23T22:48:12.849Z,24.5
2018-06-23T22:50:05.543Z,24.5
2018-06-23T22:52:05.238Z,24.5
2018-06-23T22:54:07.994Z,24.5
2018-06-23T22:56:05.324Z,24.5
2018-06-23T22:58:05.009Z,24.5
2018-06-23T23:00:04.712Z,24.5
2018-06-23T23:02:05.372Z,24.5
2018-06-23T23:04:05.021Z,24.5
2018-06-23T23:06:09.769Z,24.5
2018-06-23T23:08:05.468Z,24.5
2018-06-23T23:10:07.853Z,24.5
2018-06-23T23:12:04.712Z,24.5
2018-06-23T23:14:05.370Z,24.5
2018-06-23T23:16:05.056Z,24.5
2018-06-23T23:18:07.518Z,24.5
2018-06-23T23:20:05.022Z,24.5
2018-06-23T23:22:07.234Z,24.5
2018-06-23T23:24:07.508Z,24.5
2018-06-23T23:26:04.822Z,24.5
2018-06-23T23:28:05.515Z,24.5
2018-06-23T23:30:07.720Z,24.5
2018-06-23T23:32:05.498Z,24.5
2018-06-23T23:34:05.404Z,24.5
2018-06-23T23:36:05.139Z,24.5
2018-06-23T23:38:05.372Z,24.5
2018-06-23T23:40:05.086Z,24.5
2018-06-23T23:42:04.782Z,24.5
2018-06-23T23:44:05.492Z,24.5
2018-06-23T23:46:20.364Z,24.5
2018-06-23T23:48:04.604Z,24.5
2018-06-23T23:50:07.864Z,24.5
2018-06-23T23:52:05.350Z,24.5
2018-06-23T23:54:07.545Z,24.5
2018-06-23T23:56:04.807Z,24.5
2018-06-23T23:58:05.064Z,24.5
